sensor_id;sensor_type;location;lat;lon;timestamp;temperature;humidity
7445;DHT22;3764;48.126;11.594;2024-03-02T00:00:52;6.50;99.90
7445;DHT22;3764;48.126;11.594;2024-03-02T00:03:20;6.60;99.90
7445;DHT22;3764;48.126;11.594;2024-03-02T00:05:50;6.50;99.90
7445;DHT22;3764;48.126;11.594;2024-03-02T00:08:23;6.50;99.90
7445;DHT22;3764;48.126;11.594;2024-03-02T00:10:53;6.50;99.90
7445;DHT22;3764;48.126;11.594;2024-03-02T00:13:24;6.50;99.90
7445;DHT22;3764;48.126;11.594;2024-03-02T00:15:54;6.50;99.90
7445;DHT22;3764;48.126;11.594;2024-03-02T00:18:25;6.50;99.90
7445;DHT22;3764;48.126;11.594;2024-03-02T00:20:56;6.50;99.90
7445;DHT22;3764;48.126;11.594;2024-03-02T00:23:24;6.50;99.90
7445;DHT22;3764;48.126;11.594;2024-03-02T00:25:53;6.50;99.90
7445;DHT22;3764;48.126;11.594;2024-03-02T00:28:23;6.50;99.90
7445;DHT22;3764;48.126;11.594;2024-03-02T00:30:57;6.50;99.90
7445;DHT22;3764;48.126;11.594;2024-03-02T00:33:27;6.50;99.90
7445;DHT22;3764;48.126;11.594;2024-03-02T00:35:56;6.40;99.90
7445;DHT22;3764;48.126;11.594;2024-03-02T00:38:23;6.40;99.90
7445;DHT22;3764;48.126;11.594;2024-03-02T00:40:51;6.40;99.90
7445;DHT22;3764;48.126;11.594;2024-03-02T00:43:41;6.40;99.90
7445;DHT22;3764;48.126;11.594;2024-03-02T00:46:11;6.40;99.90
7445;DHT22;3764;48.126;11.594;2024-03-02T00:48:39;6.30;99.90
7445;DHT22;3764;48.126;11.594;2024-03-02T00:51:09;6.30;99.90
7445;DHT22;3764;48.126;11.594;2024-03-02T00:53:37;6.30;99.90
7445;DHT22;3764;48.126;11.594;2024-03-02T00:56:09;6.30;99.90
7445;DHT22;3764;48.126;11.594;2024-03-02T00:58:37;6.20;99.90
7445;DHT22;3764;48.126;11.594;2024-03-02T01:01:04;6.20;99.90
7445;DHT22;3764;48.126;11.594;2024-03-02T01:03:34;6.20;99.90
7445;DHT22;3764;48.126;11.594;2024-03-02T01:06:03;6.30;99.90
7445;DHT22;3764;48.126;11.594;2024-03-02T01:08:33;6.20;99.90
7445;DHT22;3764;48.126;11.594;2024-03-02T01:11:01;6.30;99.90
7445;DHT22;3764;48.126;11.594;2024-03-02T01:13:28;6.20;99.90
7445;DHT22;3764;48.126;11.594;2024-03-02T01:15:55;6.30;99.90
7445;DHT22;3764;48.126;11.594;2024-03-02T01:18:23;6.30;99.90
7445;DHT22;3764;48.126;11.594;2024-03-02T01:20:51;6.30;99.90
7445;DHT22;3764;48.126;11.594;2024-03-02T01:23:21;6.20;99.90
7445;DHT22;3764;48.126;11.594;2024-03-02T01:25:48;6.30;99.90
7445;DHT22;3764;48.126;11.594;2024-03-02T01:28:15;6.30;99.90
7445;DHT22;3764;48.126;11.594;2024-03-02T01:30:43;6.20;99.90
7445;DHT22;3764;48.126;11.594;2024-03-02T01:33:10;6.20;99.90
7445;DHT22;3764;48.126;11.594;2024-03-02T01:35:37;6.20;99.90
7445;DHT22;3764;48.126;11.594;2024-03-02T01:38:06;6.20;99.90
7445;DHT22;3764;48.126;11.594;2024-03-02T01:40:34;6.20;99.90
7445;DHT22;3764;48.126;11.594;2024-03-02T01:43:01;6.20;99.90
7445;DHT22;3764;48.126;11.594;2024-03-02T01:45:28;6.20;99.90
7445;DHT22;3764;48.126;11.594;2024-03-02T01:47:55;6.20;99.90
7445;DHT22;3764;48.126;11.594;2024-03-02T01:50:27;6.20;99.90
7445;DHT22;3764;48.126;11.594;2024-03-02T01:52:55;6.20;99.90
7445;DHT22;3764;48.126;11.594;2024-03-02T01:55:24;6.20;99.90
7445;DHT22;3764;48.126;11.594;2024-03-02T01:57:52;6.20;99.90
7445;DHT22;3764;48.126;11.594;2024-03-02T02:00:20;6.20;99.90
7445;DHT22;3764;48.126;11.594;2024-03-02T02:02:48;6.20;99.90
7445;DHT22;3764;48.126;11.594;2024-03-02T02:05:16;6.10;99.90
7445;DHT22;3764;48.126;11.594;2024-03-02T02:07:43;6.10;99.90
7445;DHT22;3764;48.126;11.594;2024-03-02T02:10:11;6.10;99.90
7445;DHT22;3764;48.126;11.594;2024-03-02T02:12:40;6.10;99.90
7445;DHT22;3764;48.126;11.594;2024-03-02T02:15:22;6.10;99.90
7445;DHT22;3764;48.126;11.594;2024-03-02T02:17:49;6.10;99.90
7445;DHT22;3764;48.126;11.594;2024-03-02T02:20:17;6.10;99.90
7445;DHT22;3764;48.126;11.594;2024-03-02T02:22:59;6.20;99.90
7445;DHT22;3764;48.126;11.594;2024-03-02T02:25:27;6.20;99.90
7445;DHT22;3764;48.126;11.594;2024-03-02T02:27:55;6.20;99.90
7445;DHT22;3764;48.126;11.594;2024-03-02T02:30:26;6.20;99.90
7445;DHT22;3764;48.126;11.594;2024-03-02T02:32:53;6.20;99.90
7445;DHT22;3764;48.126;11.594;2024-03-02T02:35:21;6.30;99.90
7445;DHT22;3764;48.126;11.594;2024-03-02T02:37:50;6.30;99.90
7445;DHT22;3764;48.126;11.594;2024-03-02T02:40:19;6.20;99.90
7445;DHT22;3764;48.126;11.594;2024-03-02T02:42:46;6.30;99.90
7445;DHT22;3764;48.126;11.594;2024-03-02T02:45:14;6.30;99.90
7445;DHT22;3764;48.126;11.594;2024-03-02T02:47:41;6.30;99.90
7445;DHT22;3764;48.126;11.594;2024-03-02T02:50:09;6.30;99.90
7445;DHT22;3764;48.126;11.594;2024-03-02T02:52:38;6.20;99.90
7445;DHT22;3764;48.126;11.594;2024-03-02T02:55:07;6.20;99.90
7445;DHT22;3764;48.126;11.594;2024-03-02T02:57:36;6.30;99.90
7445;DHT22;3764;48.126;11.594;2024-03-02T03:00:06;6.30;99.90
7445;DHT22;3764;48.126;11.594;2024-03-02T03:02:37;6.30;99.90
7445;DHT22;3764;48.126;11.594;2024-03-02T03:05:06;6.30;99.90
7445;DHT22;3764;48.126;11.594;2024-03-02T03:07:33;6.30;99.90
7445;DHT22;3764;48.126;11.594;2024-03-02T03:10:02;6.30;99.90
7445;DHT22;3764;48.126;11.594;2024-03-02T03:12:30;6.30;99.90
7445;DHT22;3764;48.126;11.594;2024-03-02T03:14:59;6.30;99.90
7445;DHT22;3764;48.126;11.594;2024-03-02T03:17:26;6.30;99.90
7445;DHT22;3764;48.126;11.594;2024-03-02T03:19:53;6.40;99.90
7445;DHT22;3764;48.126;11.594;2024-03-02T03:22:21;6.40;99.90
7445;DHT22;3764;48.126;11.594;2024-03-02T03:24:49;6.50;99.90
7445;DHT22;3764;48.126;11.594;2024-03-02T03:27:16;6.50;99.90
7445;DHT22;3764;48.126;11.594;2024-03-02T03:29:42;6.60;99.90
7445;DHT22;3764;48.126;11.594;2024-03-02T03:32:11;6.60;99.90
7445;DHT22;3764;48.126;11.594;2024-03-02T03:34:38;6.70;99.90
7445;DHT22;3764;48.126;11.594;2024-03-02T03:37:06;6.70;99.90
7445;DHT22;3764;48.126;11.594;2024-03-02T03:39:34;6.70;99.90
7445;DHT22;3764;48.126;11.594;2024-03-02T03:42:02;6.70;99.90
7445;DHT22;3764;48.126;11.594;2024-03-02T03:44:29;6.80;99.90
7445;DHT22;3764;48.126;11.594;2024-03-02T03:46:57;6.70;99.90
7445;DHT22;3764;48.126;11.594;2024-03-02T03:49:25;6.70;99.90
7445;DHT22;3764;48.126;11.594;2024-03-02T03:51:52;6.70;99.90
7445;DHT22;3764;48.126;11.594;2024-03-02T03:54:20;6.80;99.90
7445;DHT22;3764;48.126;11.594;2024-03-02T03:56:47;6.70;99.90
7445;DHT22;3764;48.126;11.594;2024-03-02T03:59:14;6.70;99.90
7445;DHT22;3764;48.126;11.594;2024-03-02T04:01:41;6.70;99.90
7445;DHT22;3764;48.126;11.594;2024-03-02T04:04:09;6.70;99.90
7445;DHT22;3764;48.126;11.594;2024-03-02T04:06:37;6.70;99.90
7445;DHT22;3764;48.126;11.594;2024-03-02T04:09:04;6.60;99.90
7445;DHT22;3764;48.126;11.594;2024-03-02T04:11:32;6.60;99.90
7445;DHT22;3764;48.126;11.594;2024-03-02T04:13:59;6.50;99.90
7445;DHT22;3764;48.126;11.594;2024-03-02T04:16:26;6.50;99.90
7445;DHT22;3764;48.126;11.594;2024-03-02T04:18:54;6.50;99.90
7445;DHT22;3764;48.126;11.594;2024-03-02T04:21:21;6.40;99.90
7445;DHT22;3764;48.126;11.594;2024-03-02T04:23:50;6.40;99.90
7445;DHT22;3764;48.126;11.594;2024-03-02T04:26:17;6.40;99.90
7445;DHT22;3764;48.126;11.594;2024-03-02T04:28:48;6.40;99.90
7445;DHT22;3764;48.126;11.594;2024-03-02T04:31:15;6.40;99.90
7445;DHT22;3764;48.126;11.594;2024-03-02T04:33:42;6.30;99.90
7445;DHT22;3764;48.126;11.594;2024-03-02T04:36:09;6.30;99.90
7445;DHT22;3764;48.126;11.594;2024-03-02T04:38:37;6.30;99.90
7445;DHT22;3764;48.126;11.594;2024-03-02T04:41:06;6.30;99.90
7445;DHT22;3764;48.126;11.594;2024-03-02T04:43:33;6.30;99.90
7445;DHT22;3764;48.126;11.594;2024-03-02T04:46:01;6.30;99.90
7445;DHT22;3764;48.126;11.594;2024-03-02T04:48:28;6.30;99.90
7445;DHT22;3764;48.126;11.594;2024-03-02T04:50:55;6.30;99.90
7445;DHT22;3764;48.126;11.594;2024-03-02T04:53:22;6.30;99.90
7445;DHT22;3764;48.126;11.594;2024-03-02T04:55:50;6.40;99.90
7445;DHT22;3764;48.126;11.594;2024-03-02T04:58:46;6.40;99.90
7445;DHT22;3764;48.126;11.594;2024-03-02T05:01:14;6.50;99.90
7445;DHT22;3764;48.126;11.594;2024-03-02T05:03:42;6.50;99.90
7445;DHT22;3764;48.126;11.594;2024-03-02T05:06:09;6.60;99.90
7445;DHT22;3764;48.126;11.594;2024-03-02T05:08:36;6.60;99.90
7445;DHT22;3764;48.126;11.594;2024-03-02T05:11:04;6.70;99.90
7445;DHT22;3764;48.126;11.594;2024-03-02T05:13:46;6.70;99.90
7445;DHT22;3764;48.126;11.594;2024-03-02T05:16:13;6.70;99.90
7445;DHT22;3764;48.126;11.594;2024-03-02T05:18:40;6.70;99.90
7445;DHT22;3764;48.126;11.594;2024-03-02T05:21:08;6.70;99.90
7445;DHT22;3764;48.126;11.594;2024-03-02T05:23:35;6.80;99.90
7445;DHT22;3764;48.126;11.594;2024-03-02T05:26:03;6.80;99.90
7445;DHT22;3764;48.126;11.594;2024-03-02T05:28:30;6.80;99.90
7445;DHT22;3764;48.126;11.594;2024-03-02T05:30:58;6.80;99.90
7445;DHT22;3764;48.126;11.594;2024-03-02T05:33:26;6.80;99.90
7445;DHT22;3764;48.126;11.594;2024-03-02T05:35:54;6.80;99.90
7445;DHT22;3764;48.126;11.594;2024-03-02T05:38:22;6.70;99.90
7445;DHT22;3764;48.126;11.594;2024-03-02T05:40:49;6.70;99.90
7445;DHT22;3764;48.126;11.594;2024-03-02T05:43:16;6.60;99.90
7445;DHT22;3764;48.126;11.594;2024-03-02T05:45:44;6.60;99.90
7445;DHT22;3764;48.126;11.594;2024-03-02T05:48:12;6.60;99.90
7445;DHT22;3764;48.126;11.594;2024-03-02T05:50:39;6.60;99.90
7445;DHT22;3764;48.126;11.594;2024-03-02T05:53:07;6.60;99.90
7445;DHT22;3764;48.126;11.594;2024-03-02T05:55:34;6.60;99.90
7445;DHT22;3764;48.126;11.594;2024-03-02T05:58:01;6.50;99.90
7445;DHT22;3764;48.126;11.594;2024-03-02T06:00:43;6.50;99.90
7445;DHT22;3764;48.126;11.594;2024-03-02T06:03:12;6.50;99.90
7445;DHT22;3764;48.126;11.594;2024-03-02T06:05:39;6.50;99.90
7445;DHT22;3764;48.126;11.594;2024-03-02T06:08:06;6.50;99.90
7445;DHT22;3764;48.126;11.594;2024-03-02T06:10:34;6.50;99.90
7445;DHT22;3764;48.126;11.594;2024-03-02T06:13:01;6.40;99.90
7445;DHT22;3764;48.126;11.594;2024-03-02T06:15:28;6.40;99.90
7445;DHT22;3764;48.126;11.594;2024-03-02T06:17:55;6.40;99.90
7445;DHT22;3764;48.126;11.594;2024-03-02T06:20:24;6.50;99.90
7445;DHT22;3764;48.126;11.594;2024-03-02T06:22:52;6.60;99.90
7445;DHT22;3764;48.126;11.594;2024-03-02T06:25:20;6.60;99.90
7445;DHT22;3764;48.126;11.594;2024-03-02T06:27:47;6.70;99.90
7445;DHT22;3764;48.126;11.594;2024-03-02T06:30:15;6.70;99.90
7445;DHT22;3764;48.126;11.594;2024-03-02T06:32:42;6.80;99.90
7445;DHT22;3764;48.126;11.594;2024-03-02T06:35:09;6.80;99.90
7445;DHT22;3764;48.126;11.594;2024-03-02T06:37:39;6.80;99.90
7445;DHT22;3764;48.126;11.594;2024-03-02T06:40:07;6.80;99.90
7445;DHT22;3764;48.126;11.594;2024-03-02T06:42:35;6.80;99.90
7445;DHT22;3764;48.126;11.594;2024-03-02T06:45:03;6.70;99.90
7445;DHT22;3764;48.126;11.594;2024-03-02T06:47:30;6.60;99.90
7445;DHT22;3764;48.126;11.594;2024-03-02T06:49:57;6.60;99.90
7445;DHT22;3764;48.126;11.594;2024-03-02T06:52:25;6.60;99.90
7445;DHT22;3764;48.126;11.594;2024-03-02T06:54:54;6.60;99.90
7445;DHT22;3764;48.126;11.594;2024-03-02T06:57:21;6.60;99.90
7445;DHT22;3764;48.126;11.594;2024-03-02T06:59:50;6.60;99.90
7445;DHT22;3764;48.126;11.594;2024-03-02T07:02:19;6.60;99.90
7445;DHT22;3764;48.126;11.594;2024-03-02T07:04:47;6.70;99.90
7445;DHT22;3764;48.126;11.594;2024-03-02T07:07:14;6.60;99.90
7445;DHT22;3764;48.126;11.594;2024-03-02T07:09:42;6.70;99.90
7445;DHT22;3764;48.126;11.594;2024-03-02T07:12:09;6.60;99.90
7445;DHT22;3764;48.126;11.594;2024-03-02T07:14:36;6.60;99.90
7445;DHT22;3764;48.126;11.594;2024-03-02T07:17:21;6.50;99.90
7445;DHT22;3764;48.126;11.594;2024-03-02T07:19:48;6.50;99.90
7445;DHT22;3764;48.126;11.594;2024-03-02T07:22:15;6.50;99.90
7445;DHT22;3764;48.126;11.594;2024-03-02T07:24:43;6.50;99.90
7445;DHT22;3764;48.126;11.594;2024-03-02T07:27:13;6.50;99.90
7445;DHT22;3764;48.126;11.594;2024-03-02T07:29:40;6.50;99.90
7445;DHT22;3764;48.126;11.594;2024-03-02T07:32:09;6.50;99.90
7445;DHT22;3764;48.126;11.594;2024-03-02T07:34:37;6.50;99.90
7445;DHT22;3764;48.126;11.594;2024-03-02T07:37:04;6.50;99.90
7445;DHT22;3764;48.126;11.594;2024-03-02T07:39:32;6.50;99.90
7445;DHT22;3764;48.126;11.594;2024-03-02T07:41:59;6.50;99.90
7445;DHT22;3764;48.126;11.594;2024-03-02T07:44:28;6.40;99.90
7445;DHT22;3764;48.126;11.594;2024-03-02T07:46:55;6.40;99.90
7445;DHT22;3764;48.126;11.594;2024-03-02T07:49:22;6.50;99.90
7445;DHT22;3764;48.126;11.594;2024-03-02T07:51:50;6.40;99.90
7445;DHT22;3764;48.126;11.594;2024-03-02T07:54:17;6.40;99.90
7445;DHT22;3764;48.126;11.594;2024-03-02T07:56:45;6.50;99.90
7445;DHT22;3764;48.126;11.594;2024-03-02T07:59:12;6.50;99.90
7445;DHT22;3764;48.126;11.594;2024-03-02T08:01:41;6.60;99.90
7445;DHT22;3764;48.126;11.594;2024-03-02T08:04:08;6.70;99.90
7445;DHT22;3764;48.126;11.594;2024-03-02T08:06:36;6.70;99.90
7445;DHT22;3764;48.126;11.594;2024-03-02T08:09:03;6.80;99.90
7445;DHT22;3764;48.126;11.594;2024-03-02T08:11:35;6.80;99.90
7445;DHT22;3764;48.126;11.594;2024-03-02T08:14:03;6.80;99.90
7445;DHT22;3764;48.126;11.594;2024-03-02T08:16:30;6.80;99.90
7445;DHT22;3764;48.126;11.594;2024-03-02T08:18:59;6.90;99.90
7445;DHT22;3764;48.126;11.594;2024-03-02T08:21:26;6.90;99.90
7445;DHT22;3764;48.126;11.594;2024-03-02T08:23:56;6.90;99.90
7445;DHT22;3764;48.126;11.594;2024-03-02T08:26:24;7.00;99.90
7445;DHT22;3764;48.126;11.594;2024-03-02T08:28:51;6.90;99.90
7445;DHT22;3764;48.126;11.594;2024-03-02T08:31:18;7.00;99.90
7445;DHT22;3764;48.126;11.594;2024-03-02T08:33:45;7.00;99.90
7445;DHT22;3764;48.126;11.594;2024-03-02T08:36:14;7.10;99.90
7445;DHT22;3764;48.126;11.594;2024-03-02T08:38:42;7.10;99.90
7445;DHT22;3764;48.126;11.594;2024-03-02T08:41:10;7.10;99.90
7445;DHT22;3764;48.126;11.594;2024-03-02T08:43:40;7.20;99.90
7445;DHT22;3764;48.126;11.594;2024-03-02T08:46:07;7.20;99.90
7445;DHT22;3764;48.126;11.594;2024-03-02T08:48:35;7.20;99.90
7445;DHT22;3764;48.126;11.594;2024-03-02T08:51:02;7.20;99.90
7445;DHT22;3764;48.126;11.594;2024-03-02T08:53:34;7.30;99.90
7445;DHT22;3764;48.126;11.594;2024-03-02T08:56:02;7.30;99.90
7445;DHT22;3764;48.126;11.594;2024-03-02T08:58:31;7.30;99.90
7445;DHT22;3764;48.126;11.594;2024-03-02T09:00:58;7.40;99.90
7445;DHT22;3764;48.126;11.594;2024-03-02T09:03:26;7.40;99.90
7445;DHT22;3764;48.126;11.594;2024-03-02T09:05:53;7.40;99.90
7445;DHT22;3764;48.126;11.594;2024-03-02T09:08:20;7.40;99.90
7445;DHT22;3764;48.126;11.594;2024-03-02T09:10:49;7.40;99.90
7445;DHT22;3764;48.126;11.594;2024-03-02T09:13:16;7.50;99.90
7445;DHT22;3764;48.126;11.594;2024-03-02T09:15:44;7.50;99.90
7445;DHT22;3764;48.126;11.594;2024-03-02T09:18:11;7.50;99.90
7445;DHT22;3764;48.126;11.594;2024-03-02T09:20:39;7.60;99.90
7445;DHT22;3764;48.126;11.594;2024-03-02T09:23:06;7.60;99.90
7445;DHT22;3764;48.126;11.594;2024-03-02T09:25:33;7.60;99.90
7445;DHT22;3764;48.126;11.594;2024-03-02T09:28:02;7.70;99.90
7445;DHT22;3764;48.126;11.594;2024-03-02T09:30:29;7.70;99.90
7445;DHT22;3764;48.126;11.594;2024-03-02T09:32:56;7.70;99.90
7445;DHT22;3764;48.126;11.594;2024-03-02T09:35:24;7.80;99.90
7445;DHT22;3764;48.126;11.594;2024-03-02T09:37:51;7.80;99.90
7445;DHT22;3764;48.126;11.594;2024-03-02T09:40:21;7.80;99.90
7445;DHT22;3764;48.126;11.594;2024-03-02T09:42:49;7.90;99.90
7445;DHT22;3764;48.126;11.594;2024-03-02T09:45:23;7.90;99.90
7445;DHT22;3764;48.126;11.594;2024-03-02T09:47:51;8.00;99.90
7445;DHT22;3764;48.126;11.594;2024-03-02T09:50:18;8.00;99.90
7445;DHT22;3764;48.126;11.594;2024-03-02T09:52:48;8.10;99.90
7445;DHT22;3764;48.126;11.594;2024-03-02T09:55:15;8.10;99.90
7445;DHT22;3764;48.126;11.594;2024-03-02T09:57:43;8.20;99.90
7445;DHT22;3764;48.126;11.594;2024-03-02T10:00:12;8.30;99.90
7445;DHT22;3764;48.126;11.594;2024-03-02T10:02:42;8.30;99.90
7445;DHT22;3764;48.126;11.594;2024-03-02T10:05:09;8.40;99.90
7445;DHT22;3764;48.126;11.594;2024-03-02T10:07:37;8.50;99.90
7445;DHT22;3764;48.126;11.594;2024-03-02T10:10:14;8.50;99.90
7445;DHT22;3764;48.126;11.594;2024-03-02T10:12:42;8.60;99.90
7445;DHT22;3764;48.126;11.594;2024-03-02T10:15:09;8.70;99.90
7445;DHT22;3764;48.126;11.594;2024-03-02T10:17:36;8.70;99.90
7445;DHT22;3764;48.126;11.594;2024-03-02T10:20:23;8.80;99.90
7445;DHT22;3764;48.126;11.594;2024-03-02T10:22:51;8.90;99.90
7445;DHT22;3764;48.126;11.594;2024-03-02T10:25:31;8.90;99.90
7445;DHT22;3764;48.126;11.594;2024-03-02T10:27:59;9.00;99.90
7445;DHT22;3764;48.126;11.594;2024-03-02T10:30:26;9.00;99.90
7445;DHT22;3764;48.126;11.594;2024-03-02T10:32:54;9.10;99.90
7445;DHT22;3764;48.126;11.594;2024-03-02T10:35:23;9.10;99.90
7445;DHT22;3764;48.126;11.594;2024-03-02T10:37:52;9.10;99.90
7445;DHT22;3764;48.126;11.594;2024-03-02T10:40:22;9.20;99.90
7445;DHT22;3764;48.126;11.594;2024-03-02T10:42:50;9.20;99.90
7445;DHT22;3764;48.126;11.594;2024-03-02T10:45:20;9.30;99.90
7445;DHT22;3764;48.126;11.594;2024-03-02T10:47:48;9.40;99.90
7445;DHT22;3764;48.126;11.594;2024-03-02T10:50:16;9.50;99.90
7445;DHT22;3764;48.126;11.594;2024-03-02T10:52:45;9.50;99.90
7445;DHT22;3764;48.126;11.594;2024-03-02T10:55:13;9.60;99.90
7445;DHT22;3764;48.126;11.594;2024-03-02T10:57:42;9.60;99.90
7445;DHT22;3764;48.126;11.594;2024-03-02T11:00:13;9.70;99.90
7445;DHT22;3764;48.126;11.594;2024-03-02T11:02:51;9.70;99.90
7445;DHT22;3764;48.126;11.594;2024-03-02T11:05:26;9.80;99.90
7445;DHT22;3764;48.126;11.594;2024-03-02T11:08:00;9.90;99.90
7445;DHT22;3764;48.126;11.594;2024-03-02T11:10:34;10.00;99.90
7445;DHT22;3764;48.126;11.594;2024-03-02T11:13:04;10.10;99.90
7445;DHT22;3764;48.126;11.594;2024-03-02T11:15:34;10.20;99.90
7445;DHT22;3764;48.126;11.594;2024-03-02T11:18:04;10.30;99.90
7445;DHT22;3764;48.126;11.594;2024-03-02T11:20:36;10.50;99.90
7445;DHT22;3764;48.126;11.594;2024-03-02T11:23:07;10.70;99.90
7445;DHT22;3764;48.126;11.594;2024-03-02T11:25:35;10.90;99.90
7445;DHT22;3764;48.126;11.594;2024-03-02T11:28:04;10.90;99.90
7445;DHT22;3764;48.126;11.594;2024-03-02T11:30:50;11.00;99.90
7445;DHT22;3764;48.126;11.594;2024-03-02T11:33:24;11.10;99.90
7445;DHT22;3764;48.126;11.594;2024-03-02T11:35:53;11.10;99.90
7445;DHT22;3764;48.126;11.594;2024-03-02T11:38:21;11.30;99.90
7445;DHT22;3764;48.126;11.594;2024-03-02T11:40:50;11.30;99.90
7445;DHT22;3764;48.126;11.594;2024-03-02T11:43:18;11.40;99.90
7445;DHT22;3764;48.126;11.594;2024-03-02T11:45:46;11.50;99.90
7445;DHT22;3764;48.126;11.594;2024-03-02T11:48:14;11.70;99.90
7445;DHT22;3764;48.126;11.594;2024-03-02T11:50:42;11.90;99.90
7445;DHT22;3764;48.126;11.594;2024-03-02T11:53:13;12.00;99.90
7445;DHT22;3764;48.126;11.594;2024-03-02T11:55:41;12.20;99.90
7445;DHT22;3764;48.126;11.594;2024-03-02T11:58:12;12.30;99.90
7445;DHT22;3764;48.126;11.594;2024-03-02T12:00:39;12.50;99.90
7445;DHT22;3764;48.126;11.594;2024-03-02T12:03:09;12.70;99.90
7445;DHT22;3764;48.126;11.594;2024-03-02T12:05:36;12.80;99.90
7445;DHT22;3764;48.126;11.594;2024-03-02T12:08:04;13.00;99.90
7445;DHT22;3764;48.126;11.594;2024-03-02T12:10:32;13.10;99.90
7445;DHT22;3764;48.126;11.594;2024-03-02T12:13:02;13.20;99.90
7445;DHT22;3764;48.126;11.594;2024-03-02T12:15:31;13.20;99.90
7445;DHT22;3764;48.126;11.594;2024-03-02T12:17:59;13.30;99.90
7445;DHT22;3764;48.126;11.594;2024-03-02T12:20:29;13.40;99.90
7445;DHT22;3764;48.126;11.594;2024-03-02T12:22:58;13.50;99.90
7445;DHT22;3764;48.126;11.594;2024-03-02T12:25:26;13.60;99.90
7445;DHT22;3764;48.126;11.594;2024-03-02T12:27:54;13.70;99.90
7445;DHT22;3764;48.126;11.594;2024-03-02T12:30:23;13.70;99.90
7445;DHT22;3764;48.126;11.594;2024-03-02T12:32:51;13.80;99.90
7445;DHT22;3764;48.126;11.594;2024-03-02T12:35:18;13.90;99.90
7445;DHT22;3764;48.126;11.594;2024-03-02T12:37:46;14.00;99.90
7445;DHT22;3764;48.126;11.594;2024-03-02T12:40:14;14.10;99.90
7445;DHT22;3764;48.126;11.594;2024-03-02T12:42:43;14.10;99.90
7445;DHT22;3764;48.126;11.594;2024-03-02T12:45:11;14.20;99.90
7445;DHT22;3764;48.126;11.594;2024-03-02T12:47:41;14.20;99.90
7445;DHT22;3764;48.126;11.594;2024-03-02T12:50:10;14.20;99.90
7445;DHT22;3764;48.126;11.594;2024-03-02T12:52:37;14.20;99.90
7445;DHT22;3764;48.126;11.594;2024-03-02T12:55:05;14.30;99.90
7445;DHT22;3764;48.126;11.594;2024-03-02T12:57:33;14.30;99.90
7445;DHT22;3764;48.126;11.594;2024-03-02T13:00:01;14.40;99.90
7445;DHT22;3764;48.126;11.594;2024-03-02T13:02:35;14.40;99.90
7445;DHT22;3764;48.126;11.594;2024-03-02T13:05:06;14.40;99.90
7445;DHT22;3764;48.126;11.594;2024-03-02T13:07:37;14.40;99.90
7445;DHT22;3764;48.126;11.594;2024-03-02T13:10:04;14.50;99.90
7445;DHT22;3764;48.126;11.594;2024-03-02T13:12:32;14.50;99.90
7445;DHT22;3764;48.126;11.594;2024-03-02T13:15:00;14.40;99.90
7445;DHT22;3764;48.126;11.594;2024-03-02T13:17:28;14.50;99.90
7445;DHT22;3764;48.126;11.594;2024-03-02T13:19:56;14.50;99.90
7445;DHT22;3764;48.126;11.594;2024-03-02T13:22:25;14.50;99.90
7445;DHT22;3764;48.126;11.594;2024-03-02T13:24:53;14.50;99.90
7445;DHT22;3764;48.126;11.594;2024-03-02T13:27:21;14.60;99.90
7445;DHT22;3764;48.126;11.594;2024-03-02T13:29:48;14.60;99.90
7445;DHT22;3764;48.126;11.594;2024-03-02T13:32:16;14.60;99.90
7445;DHT22;3764;48.126;11.594;2024-03-02T13:34:46;14.60;99.90
7445;DHT22;3764;48.126;11.594;2024-03-02T13:37:13;14.60;99.90
7445;DHT22;3764;48.126;11.594;2024-03-02T13:39:42;14.70;99.90
7445;DHT22;3764;48.126;11.594;2024-03-02T13:42:10;14.70;99.90
7445;DHT22;3764;48.126;11.594;2024-03-02T13:44:39;14.80;99.90
7445;DHT22;3764;48.126;11.594;2024-03-02T13:47:07;14.80;99.90
7445;DHT22;3764;48.126;11.594;2024-03-02T13:49:34;14.80;99.90
7445;DHT22;3764;48.126;11.594;2024-03-02T13:52:03;14.80;99.90
7445;DHT22;3764;48.126;11.594;2024-03-02T13:54:39;14.80;99.90
7445;DHT22;3764;48.126;11.594;2024-03-02T13:57:09;14.80;99.90
7445;DHT22;3764;48.126;11.594;2024-03-02T13:59:37;14.70;99.90
7445;DHT22;3764;48.126;11.594;2024-03-02T14:02:05;14.70;99.90
7445;DHT22;3764;48.126;11.594;2024-03-02T14:04:33;14.80;99.90
7445;DHT22;3764;48.126;11.594;2024-03-02T14:07:01;14.80;99.90
7445;DHT22;3764;48.126;11.594;2024-03-02T14:09:28;14.80;99.90
7445;DHT22;3764;48.126;11.594;2024-03-02T14:11:56;14.80;99.90
7445;DHT22;3764;48.126;11.594;2024-03-02T14:14:24;14.70;99.90
7445;DHT22;3764;48.126;11.594;2024-03-02T14:16:52;14.70;99.90
7445;DHT22;3764;48.126;11.594;2024-03-02T14:19:19;14.70;99.90
7445;DHT22;3764;48.126;11.594;2024-03-02T14:21:47;14.80;99.90
7445;DHT22;3764;48.126;11.594;2024-03-02T14:24:14;14.80;99.90
7445;DHT22;3764;48.126;11.594;2024-03-02T14:26:41;14.80;99.90
7445;DHT22;3764;48.126;11.594;2024-03-02T14:29:08;15.00;99.90
7445;DHT22;3764;48.126;11.594;2024-03-02T14:31:37;15.00;99.90
7445;DHT22;3764;48.126;11.594;2024-03-02T14:34:04;15.00;99.90
7445;DHT22;3764;48.126;11.594;2024-03-02T14:36:31;15.00;99.90
7445;DHT22;3764;48.126;11.594;2024-03-02T14:38:59;15.00;99.90
7445;DHT22;3764;48.126;11.594;2024-03-02T14:41:26;15.10;99.90
7445;DHT22;3764;48.126;11.594;2024-03-02T14:43:53;15.10;99.90
7445;DHT22;3764;48.126;11.594;2024-03-02T14:46:20;15.00;99.90
7445;DHT22;3764;48.126;11.594;2024-03-02T14:48:49;15.00;99.90
7445;DHT22;3764;48.126;11.594;2024-03-02T14:51:16;14.80;99.90
7445;DHT22;3764;48.126;11.594;2024-03-02T14:53:43;14.70;99.90
7445;DHT22;3764;48.126;11.594;2024-03-02T14:56:10;14.70;99.90
7445;DHT22;3764;48.126;11.594;2024-03-02T14:58:39;14.60;99.90
7445;DHT22;3764;48.126;11.594;2024-03-02T15:01:06;14.50;99.90
7445;DHT22;3764;48.126;11.594;2024-03-02T15:03:35;14.40;99.90
7445;DHT22;3764;48.126;11.594;2024-03-02T15:06:04;14.30;99.90
7445;DHT22;3764;48.126;11.594;2024-03-02T15:08:33;14.20;99.90
7445;DHT22;3764;48.126;11.594;2024-03-02T15:11:00;14.00;99.90
7445;DHT22;3764;48.126;11.594;2024-03-02T15:13:29;13.80;99.90
7445;DHT22;3764;48.126;11.594;2024-03-02T15:15:56;13.80;99.90
7445;DHT22;3764;48.126;11.594;2024-03-02T15:18:24;13.70;99.90
7445;DHT22;3764;48.126;11.594;2024-03-02T15:20:51;13.70;99.90
7445;DHT22;3764;48.126;11.594;2024-03-02T15:23:20;13.60;99.90
7445;DHT22;3764;48.126;11.594;2024-03-02T15:25:47;13.60;99.90
7445;DHT22;3764;48.126;11.594;2024-03-02T15:28:14;13.50;99.90
7445;DHT22;3764;48.126;11.594;2024-03-02T15:30:41;13.50;99.90
7445;DHT22;3764;48.126;11.594;2024-03-02T15:33:08;13.40;99.90
7445;DHT22;3764;48.126;11.594;2024-03-02T15:35:36;13.40;99.90
7445;DHT22;3764;48.126;11.594;2024-03-02T15:38:03;13.40;99.90
7445;DHT22;3764;48.126;11.594;2024-03-02T15:40:32;13.30;99.90
7445;DHT22;3764;48.126;11.594;2024-03-02T15:42:59;13.30;99.90
7445;DHT22;3764;48.126;11.594;2024-03-02T15:45:26;13.20;99.90
7445;DHT22;3764;48.126;11.594;2024-03-02T15:47:59;13.20;99.90
7445;DHT22;3764;48.126;11.594;2024-03-02T15:50:26;13.10;99.90
7445;DHT22;3764;48.126;11.594;2024-03-02T15:52:53;13.00;99.90
7445;DHT22;3764;48.126;11.594;2024-03-02T15:55:21;13.00;99.90
7445;DHT22;3764;48.126;11.594;2024-03-02T15:57:50;12.90;99.90
7445;DHT22;3764;48.126;11.594;2024-03-02T16:00:18;12.80;99.90
7445;DHT22;3764;48.126;11.594;2024-03-02T16:02:45;12.70;99.90
7445;DHT22;3764;48.126;11.594;2024-03-02T16:05:12;12.70;99.90